Hubbell, Michigan
Current Conditions -  °F | °C
As of 5:53 AM on Wednesday 26 Nov 2014 (Local Time) from KCMX Reporting Station
Overcast Overcast  
Wind Chill: 13°   Ceiling: 3200
Heat Index: 13°   Visibility: 10mi
Dew Point:   Wind: 0mph
Humidity: 77%   Direction: NA
Pressure: 30.09"   Gusts: NA
Location:  47.17°N, 88.43°W
Report Text: KCMX 261053Z AUTO 00000KT 10SM OVC032 M11/M14 A3009 RMK AO2 SLP210 T11061139 $
Loading
Personal Weather Stations






























Interactive Weather Map New forecast layout! Learn more

10-Day Weather Forecast

Advertisements
Track Severe Weather on mobile